createdAt,value
2023-02-15T00:00:06.929Z,24.73
2023-02-15T00:02:33.885Z,23.33
2023-02-15T00:05:03.910Z,22.00
2023-02-15T00:07:31.098Z,23.37
2023-02-15T00:09:58.121Z,26.80
2023-02-15T00:12:25.126Z,22.57
2023-02-15T00:14:55.193Z,22.70
2023-02-15T00:17:22.632Z,23.90
2023-02-15T00:19:49.426Z,22.63
2023-02-15T00:22:17.406Z,21.83
2023-02-15T00:24:44.256Z,20.60
2023-02-15T00:27:11.046Z,22.30
2023-02-15T00:29:38.342Z,21.10
2023-02-15T00:32:05.390Z,21.47
2023-02-15T00:34:32.566Z,23.03
2023-02-15T00:36:59.437Z,20.90
2023-02-15T00:39:28.394Z,21.93
2023-02-15T00:42:00.504Z,22.17
2023-02-15T00:44:27.726Z,21.07
2023-02-15T00:46:57.148Z,23.07
2023-02-15T00:49:24.236Z,22.80
2023-02-15T00:51:51.110Z,26.00
2023-02-15T00:54:18.048Z,22.60
2023-02-15T00:56:45.311Z,23.77
2023-02-15T00:59:12.096Z,23.03
2023-02-15T01:01:39.259Z,21.40
2023-02-15T01:04:06.159Z,23.23
2023-02-15T01:06:33.103Z,24.13
2023-02-15T01:08:59.877Z,25.00
2023-02-15T01:11:26.680Z,26.87
2023-02-15T01:13:56.486Z,24.67
2023-02-15T01:16:25.338Z,24.47
2023-02-15T01:18:52.189Z,25.77
2023-02-15T01:21:22.100Z,22.87
2023-02-15T01:23:51.791Z,25.10
2023-02-15T01:26:21.102Z,25.73
2023-02-15T01:28:48.398Z,21.77
2023-02-15T01:31:18.237Z,25.43
2023-02-15T01:33:46.314Z,24.13
2023-02-15T01:36:13.955Z,25.87
2023-02-15T01:38:41.032Z,22.37
2023-02-15T01:41:28.117Z,25.17
2023-02-15T01:43:56.659Z,25.63
2023-02-15T01:46:36.004Z,24.07
2023-02-15T01:49:10.881Z,27.20
2023-02-15T01:51:40.659Z,22.87
2023-02-15T01:54:25.498Z,26.63
2023-02-15T01:56:53.970Z,24.10
2023-02-15T01:59:24.336Z,24.60
2023-02-15T02:01:55.609Z,24.53
2023-02-15T02:04:36.190Z,24.70
2023-02-15T02:07:04.677Z,26.37
2023-02-15T02:09:32.309Z,25.73
2023-02-15T02:12:02.890Z,28.13
2023-02-15T02:14:30.022Z,25.93
2023-02-15T02:17:10.603Z,26.37
2023-02-15T02:19:59.392Z,25.30
2023-02-15T02:23:09.068Z,26.03
2023-02-15T02:25:45.093Z,25.77
2023-02-15T02:28:11.854Z,26.57
2023-02-15T02:31:09.750Z,26.37
2023-02-15T02:33:49.511Z,23.77
2023-02-15T02:36:35.932Z,27.60
2023-02-15T02:39:24.596Z,28.37
2023-02-15T02:42:08.811Z,26.23
2023-02-15T02:44:44.532Z,26.53
2023-02-15T02:47:41.335Z,27.00
2023-02-15T02:50:23.220Z,25.93
2023-02-15T02:52:53.934Z,29.53
2023-02-15T02:55:30.731Z,26.83
2023-02-15T02:58:21.969Z,29.07
2023-02-15T03:00:48.750Z,28.40
2023-02-15T03:03:32.984Z,29.47
2023-02-15T03:06:06.207Z,27.40
2023-02-15T03:08:44.526Z,26.33
2023-02-15T03:11:13.160Z,27.47
2023-02-15T03:13:45.009Z,28.13
2023-02-15T03:16:29.571Z,24.73
2023-02-15T03:18:59.225Z,27.10
2023-02-15T03:21:32.665Z,32.30
2023-02-15T03:24:07.354Z,25.20
2023-02-15T03:26:37.118Z,26.70
2023-02-15T03:29:06.583Z,29.63
2023-02-15T03:31:38.690Z,28.90
2023-02-15T03:34:10.850Z,30.73
2023-02-15T03:36:57.163Z,28.03
2023-02-15T03:39:50.236Z,29.87
2023-02-15T03:42:34.262Z,28.03
2023-02-15T03:45:10.156Z,30.47
2023-02-15T03:47:42.764Z,26.53
2023-02-15T03:50:33.074Z,27.80
2023-02-15T03:53:04.622Z,29.07
2023-02-15T03:55:32.087Z,28.60
2023-02-15T03:58:17.580Z,28.50
2023-02-15T04:01:15.358Z,31.27
2023-02-15T04:03:53.172Z,26.33
2023-02-15T04:06:20.255Z,29.43
2023-02-15T04:09:05.944Z,30.27
2023-02-15T04:11:32.755Z,28.90
2023-02-15T04:13:59.608Z,30.73
2023-02-15T04:16:26.782Z,28.13
2023-02-15T04:19:14.654Z,26.40
2023-02-15T04:22:03.714Z,30.03
2023-02-15T04:24:49.160Z,31.63
2023-02-15T04:27:17.735Z,31.90
2023-02-15T04:29:44.655Z,30.30
2023-02-15T04:32:12.701Z,26.97
2023-02-15T04:34:39.513Z,33.77
2023-02-15T04:37:08.606Z,30.63
2023-02-15T04:39:36.164Z,33.13
2023-02-15T04:42:03.077Z,30.00
2023-02-15T04:44:29.848Z,30.87
2023-02-15T04:46:56.596Z,31.90
2023-02-15T04:49:23.348Z,31.47
2023-02-15T04:51:50.167Z,33.17
2023-02-15T04:54:17.032Z,31.97
2023-02-15T04:56:44.552Z,30.27
2023-02-15T04:59:12.372Z,32.50
2023-02-15T05:01:39.493Z,30.73
2023-02-15T05:04:06.470Z,32.50
2023-02-15T05:06:33.281Z,32.93
2023-02-15T05:09:00.377Z,31.13
2023-02-15T05:11:27.866Z,32.40
2023-02-15T05:13:54.692Z,35.20
2023-02-15T05:16:21.490Z,34.10
2023-02-15T05:18:50.727Z,32.47
2023-02-15T05:21:17.542Z,33.43
2023-02-15T05:23:44.294Z,35.17
2023-02-15T05:26:39.473Z,33.63
2023-02-15T05:29:06.774Z,32.73
2023-02-15T05:31:34.876Z,32.23
2023-02-15T05:34:03.003Z,35.13
2023-02-15T05:36:33.046Z,34.70
2023-02-15T05:38:59.809Z,37.83
2023-02-15T05:41:26.592Z,36.97
2023-02-15T05:43:55.852Z,35.50
2023-02-15T05:46:22.873Z,33.70
2023-02-15T05:48:49.777Z,35.30
2023-02-15T05:51:18.056Z,36.87
2023-02-15T05:53:45.078Z,35.47
2023-02-15T05:56:15.559Z,36.37
2023-02-15T05:58:43.316Z,34.67
2023-02-15T06:01:11.864Z,33.87
2023-02-15T06:03:39.230Z,36.00
2023-02-15T06:06:07.389Z,35.50
2023-02-15T06:08:35.812Z,34.13
2023-02-15T06:11:03.336Z,37.47
2023-02-15T06:13:30.592Z,35.50
2023-02-15T06:15:59.407Z,38.50
2023-02-15T06:18:26.674Z,41.17
2023-02-15T06:20:53.705Z,38.77
2023-02-15T06:23:20.576Z,36.40
2023-02-15T06:25:47.595Z,37.27
2023-02-15T06:28:14.874Z,36.57
2023-02-15T06:30:41.948Z,35.40
2023-02-15T06:33:08.880Z,37.13
2023-02-15T06:35:35.777Z,36.53
2023-02-15T06:38:02.644Z,37.43
2023-02-15T06:40:29.430Z,38.50
2023-02-15T06:42:56.194Z,38.20
2023-02-15T06:45:22.992Z,38.73
2023-02-15T06:47:49.859Z,36.63
2023-02-15T06:50:17.096Z,39.37
2023-02-15T06:52:43.900Z,37.90
2023-02-15T06:55:10.794Z,38.57
2023-02-15T06:57:37.658Z,35.73
2023-02-15T07:00:06.289Z,39.60
2023-02-15T07:02:34.365Z,36.43
2023-02-15T07:05:01.241Z,35.13
2023-02-15T07:07:28.142Z,37.10
2023-02-15T07:09:54.917Z,35.93
2023-02-15T07:12:40.267Z,39.03
2023-02-15T07:15:08.661Z,38.97
2023-02-15T07:17:36.616Z,32.93
2023-02-15T07:20:09.070Z,34.53
2023-02-15T07:22:37.331Z,38.03
2023-02-15T07:25:10.002Z,38.17
2023-02-15T07:27:37.180Z,35.13
2023-02-15T07:30:05.892Z,36.00
2023-02-15T07:32:34.480Z,35.60
2023-02-15T07:35:01.947Z,33.27
2023-02-15T07:37:29.085Z,36.33
2023-02-15T07:39:55.868Z,34.43
2023-02-15T07:42:23.426Z,33.13
2023-02-15T07:44:50.353Z,33.27
2023-02-15T07:47:17.379Z,33.23
2023-02-15T07:49:44.254Z,33.77
2023-02-15T07:52:11.002Z,32.67
2023-02-15T07:54:37.821Z,33.13
2023-02-15T07:57:05.131Z,31.97
2023-02-15T07:59:32.483Z,31.77
2023-02-15T08:01:59.477Z,29.60
2023-02-15T08:04:26.389Z,31.03
2023-02-15T08:06:55.434Z,28.43
2023-02-15T08:09:22.821Z,28.60
2023-02-15T08:11:50.545Z,28.90
2023-02-15T08:14:19.898Z,28.47
2023-02-15T08:16:51.055Z,28.83
2023-02-15T08:19:30.448Z,26.97
2023-02-15T08:22:02.938Z,32.67
2023-02-15T08:24:35.507Z,27.13
2023-02-15T08:27:08.443Z,28.33
2023-02-15T08:29:37.313Z,28.57
2023-02-15T08:32:07.743Z,29.97
2023-02-15T08:34:37.452Z,26.47
2023-02-15T08:37:04.437Z,26.27
2023-02-15T08:39:31.382Z,26.00
2023-02-15T08:41:58.350Z,28.70
2023-02-15T08:44:26.126Z,27.07
2023-02-15T08:46:53.021Z,27.63
2023-02-15T08:49:25.146Z,26.30
2023-02-15T08:51:52.500Z,25.47
2023-02-15T08:54:23.003Z,27.27
2023-02-15T08:56:50.372Z,25.00
2023-02-15T08:59:19.588Z,27.07
2023-02-15T09:01:49.041Z,26.23
2023-02-15T09:04:18.150Z,26.30
2023-02-15T09:06:49.150Z,26.37
2023-02-15T09:09:20.858Z,26.30
2023-02-15T09:11:56.039Z,25.30
2023-02-15T09:14:28.852Z,28.10
2023-02-15T09:16:55.876Z,24.03
2023-02-15T09:19:29.507Z,27.23
2023-02-15T09:21:56.528Z,22.90
2023-02-15T09:24:24.563Z,24.20
2023-02-15T09:26:52.029Z,23.13
2023-02-15T09:29:20.627Z,24.70
2023-02-15T09:31:51.160Z,24.07
2023-02-15T09:34:24.344Z,24.53
2023-02-15T09:36:52.321Z,20.17
2023-02-15T09:39:27.838Z,21.80
2023-02-15T09:42:15.999Z,21.37
2023-02-15T09:45:20.009Z,20.20
2023-02-15T09:48:09.735Z,21.17
2023-02-15T09:50:50.055Z,22.93
2023-02-15T09:53:48.066Z,21.83
2023-02-15T09:56:30.271Z,21.63
2023-02-15T09:59:36.917Z,21.80
2023-02-15T10:02:37.020Z,20.73
2023-02-15T10:05:12.872Z,23.70
2023-02-15T10:07:39.821Z,20.63
2023-02-15T10:10:35.324Z,21.90
2023-02-15T10:13:12.481Z,19.53
2023-02-15T10:16:03.436Z,20.70
2023-02-15T10:18:33.419Z,19.83
2023-02-15T10:21:36.286Z,22.10
2023-02-15T10:24:12.493Z,19.90
2023-02-15T10:26:48.438Z,20.47
2023-02-15T10:29:48.890Z,19.77
2023-02-15T10:32:34.397Z,19.90
2023-02-15T10:35:44.855Z,19.33
2023-02-15T10:38:26.752Z,18.80
2023-02-15T10:41:10.744Z,19.63
2023-02-15T10:44:02.048Z,25.50
2023-02-15T10:46:48.328Z,22.97
2023-02-15T10:49:54.566Z,19.10
2023-02-15T10:52:31.578Z,18.63
2023-02-15T10:55:38.447Z,17.43
2023-02-15T10:58:27.502Z,17.73
2023-02-15T11:01:27.556Z,19.10
2023-02-15T11:04:07.667Z,18.20
2023-02-15T11:06:37.815Z,17.67
2023-02-15T11:09:19.391Z,16.90
2023-02-15T11:11:54.893Z,17.17
2023-02-15T11:14:47.310Z,17.90
2023-02-15T11:17:23.263Z,16.70
2023-02-15T11:19:50.557Z,17.00
2023-02-15T11:22:18.254Z,15.70
2023-02-15T11:24:48.520Z,17.67
2023-02-15T11:27:23.436Z,16.87
2023-02-15T11:30:11.743Z,17.00
2023-02-15T11:32:51.857Z,18.03
2023-02-15T11:35:29.527Z,15.57
2023-02-15T11:38:05.253Z,16.03
2023-02-15T11:40:38.429Z,17.57
2023-02-15T11:43:14.709Z,16.83
2023-02-15T11:45:44.740Z,15.63
2023-02-15T11:48:14.646Z,19.37
2023-02-15T11:50:43.465Z,17.37
2023-02-15T11:53:16.610Z,15.17
2023-02-15T11:55:45.456Z,17.77
2023-02-15T11:58:22.406Z,19.80
2023-02-15T12:00:52.987Z,23.80
2023-02-15T12:03:30.293Z,16.43
2023-02-15T12:06:04.597Z,15.60
2023-02-15T12:08:50.474Z,20.23
2023-02-15T12:11:23.552Z,19.17
2023-02-15T12:14:02.521Z,17.23
2023-02-15T12:16:33.154Z,14.33
2023-02-15T12:19:02.236Z,22.23
2023-02-15T12:21:40.769Z,16.90
2023-02-15T12:24:23.010Z,16.77
2023-02-15T12:27:14.840Z,14.43
2023-02-15T12:29:52.207Z,15.83
2023-02-15T12:32:27.742Z,18.03
2023-02-15T12:35:10.755Z,17.67
2023-02-15T12:37:39.957Z,17.10
2023-02-15T12:40:31.392Z,15.47
2023-02-15T12:42:59.376Z,19.57
2023-02-15T12:45:32.524Z,19.33
2023-02-15T12:48:22.230Z,18.10
2023-02-15T12:50:58.051Z,15.97
2023-02-15T12:53:42.940Z,19.47
2023-02-15T12:56:12.358Z,18.23
2023-02-15T12:58:45.063Z,18.77
2023-02-15T13:01:27.696Z,15.40
2023-02-15T13:04:14.092Z,16.23
2023-02-15T13:06:53.193Z,15.90
2023-02-15T13:09:33.948Z,19.27
2023-02-15T13:12:24.702Z,17.60
2023-02-15T13:14:55.994Z,15.93
2023-02-15T13:17:36.858Z,16.43
2023-02-15T13:20:17.746Z,16.17
2023-02-15T13:22:47.719Z,16.67
2023-02-15T13:25:26.841Z,14.90
2023-02-15T13:27:58.997Z,15.67
2023-02-15T13:30:39.352Z,18.63
2023-02-15T13:33:13.140Z,15.30
2023-02-15T13:36:02.675Z,17.17
2023-02-15T13:39:09.658Z,15.07
2023-02-15T13:41:54.478Z,16.93
2023-02-15T13:44:52.683Z,14.97
2023-02-15T13:47:57.300Z,18.43
2023-02-15T13:51:00.249Z,16.80
2023-02-15T13:54:00.396Z,17.50
2023-02-15T13:56:57.996Z,15.73
2023-02-15T13:59:33.615Z,16.53
2023-02-15T14:02:55.261Z,17.60
2023-02-15T14:05:49.680Z,15.00
2023-02-15T14:08:38.218Z,15.13
2023-02-15T14:11:19.743Z,15.80
2023-02-15T14:13:47.201Z,17.73
2023-02-15T14:17:05.696Z,16.13
2023-02-15T14:19:47.145Z,18.07
2023-02-15T14:22:29.029Z,19.83
2023-02-15T14:25:19.500Z,14.37
2023-02-15T14:28:05.819Z,16.07
2023-02-15T14:30:46.338Z,15.80
2023-02-15T14:33:16.626Z,15.93
2023-02-15T14:35:45.045Z,16.27
2023-02-15T14:38:53.472Z,15.30
2023-02-15T14:41:54.844Z,17.43
2023-02-15T14:44:34.888Z,16.37
2023-02-15T14:47:13.555Z,16.47
2023-02-15T14:49:41.499Z,18.20
2023-02-15T14:52:11.636Z,17.30
2023-02-15T14:54:38.884Z,18.23
2023-02-15T14:57:07.405Z,14.33
2023-02-15T14:59:58.340Z,18.40
2023-02-15T15:02:27.398Z,16.97
2023-02-15T15:05:08.259Z,15.30
2023-02-15T15:07:52.115Z,15.97
2023-02-15T15:10:19.143Z,15.67
2023-02-15T15:12:51.654Z,15.73
2023-02-15T15:15:28.453Z,16.93
2023-02-15T15:18:08.547Z,17.73
2023-02-15T15:20:40.830Z,15.90
2023-02-15T15:23:44.276Z,17.17
2023-02-15T15:26:29.912Z,20.10
2023-02-15T15:28:59.452Z,15.67
2023-02-15T15:31:34.506Z,15.07
2023-02-15T15:34:01.454Z,20.37
2023-02-15T15:36:37.885Z,14.63
2023-02-15T15:39:42.929Z,16.87
2023-02-15T15:42:21.968Z,17.43
2023-02-15T15:45:14.847Z,14.97
2023-02-15T15:48:06.628Z,16.53
2023-02-15T15:50:34.529Z,16.40
2023-02-15T15:53:03.436Z,16.30
2023-02-15T15:55:33.096Z,16.40
2023-02-15T15:58:06.111Z,14.97
2023-02-15T16:00:51.083Z,16.20
2023-02-15T16:03:24.615Z,17.80
2023-02-15T16:05:59.551Z,19.53
2023-02-15T16:08:39.842Z,19.47
2023-02-15T16:11:18.991Z,14.27
2023-02-15T16:13:46.292Z,17.03
2023-02-15T16:16:15.387Z,15.03
2023-02-15T16:18:45.906Z,16.73
2023-02-15T16:21:24.100Z,17.47
2023-02-15T16:24:16.937Z,16.50
2023-02-15T16:27:12.236Z,17.40
2023-02-15T16:29:39.532Z,15.30
2023-02-15T16:32:21.585Z,20.17
2023-02-15T16:35:01.884Z,16.80
2023-02-15T16:37:36.208Z,18.07
2023-02-15T16:40:03.576Z,20.90
2023-02-15T16:42:30.442Z,22.70
2023-02-15T16:45:07.115Z,16.80
2023-02-15T16:47:40.057Z,19.17
2023-02-15T16:50:23.201Z,18.93
2023-02-15T16:52:50.631Z,18.70
2023-02-15T16:55:26.028Z,17.60
2023-02-15T16:57:58.740Z,20.10
2023-02-15T17:00:27.910Z,19.23
2023-02-15T17:03:00.893Z,19.63
2023-02-15T17:05:43.814Z,19.73
2023-02-15T17:08:21.101Z,23.00
2023-02-15T17:11:06.059Z,22.97
2023-02-15T17:13:33.043Z,23.33
2023-02-15T17:16:00.624Z,22.37
2023-02-15T17:18:40.998Z,20.20
2023-02-15T17:21:14.497Z,21.23
2023-02-15T17:23:43.879Z,22.23
2023-02-15T17:26:25.784Z,21.90
2023-02-15T17:29:11.856Z,26.33
2023-02-15T17:31:39.641Z,22.00
2023-02-15T17:34:06.891Z,23.47
2023-02-15T17:36:34.140Z,20.70
2023-02-15T17:39:08.098Z,23.33
2023-02-15T17:41:38.479Z,21.00
2023-02-15T17:44:05.486Z,19.13
2023-02-15T17:46:38.003Z,17.70
2023-02-15T17:49:05.610Z,20.27
2023-02-15T17:51:35.587Z,21.83
2023-02-15T17:54:21.991Z,20.47
2023-02-15T17:56:49.504Z,19.57
2023-02-15T17:59:16.386Z,21.07
2023-02-15T18:02:06.239Z,24.17
2023-02-15T18:04:56.274Z,19.67
2023-02-15T18:07:41.813Z,18.87
2023-02-15T18:10:36.944Z,17.83
2023-02-15T18:13:04.443Z,17.50
2023-02-15T18:15:31.584Z,22.23
2023-02-15T18:17:58.571Z,18.17
2023-02-15T18:20:34.242Z,22.77
2023-02-15T18:23:02.240Z,22.03
2023-02-15T18:25:29.261Z,20.50
2023-02-15T18:27:57.931Z,18.83
2023-02-15T18:30:28.112Z,20.73
2023-02-15T18:32:57.631Z,21.70
2023-02-15T18:35:28.822Z,19.70
2023-02-15T18:37:56.368Z,20.03
2023-02-15T18:40:26.851Z,20.63
2023-02-15T18:42:54.557Z,17.60
2023-02-15T18:45:32.574Z,23.73
2023-02-15T18:47:59.638Z,21.60
2023-02-15T18:50:31.012Z,19.80
2023-02-15T18:52:58.252Z,20.80
2023-02-15T18:55:28.073Z,25.07
2023-02-15T18:57:57.337Z,22.57
2023-02-15T19:00:28.380Z,23.63
2023-02-15T19:02:56.594Z,20.67
2023-02-15T19:05:24.797Z,21.50
2023-02-15T19:07:52.127Z,24.33
2023-02-15T19:10:22.434Z,22.10
2023-02-15T19:12:50.293Z,22.30
2023-02-15T19:15:22.457Z,29.03
2023-02-15T19:17:50.160Z,34.83
2023-02-15T19:20:19.755Z,29.43
2023-02-15T19:22:51.784Z,22.83
2023-02-15T19:25:25.534Z,27.30
2023-02-15T19:27:54.081Z,24.97
2023-02-15T19:30:28.707Z,23.63
2023-02-15T19:32:57.019Z,21.57
2023-02-15T19:35:26.891Z,24.87
2023-02-15T19:37:56.814Z,22.93
2023-02-15T19:40:26.001Z,20.83
2023-02-15T19:42:53.308Z,23.23
2023-02-15T19:45:23.769Z,23.77
2023-02-15T19:47:52.848Z,24.97
2023-02-15T19:50:22.772Z,25.07
2023-02-15T19:52:53.819Z,20.50
2023-02-15T19:55:27.923Z,23.03
2023-02-15T19:57:56.983Z,19.93
2023-02-15T20:00:27.138Z,18.57
2023-02-15T20:02:59.405Z,24.53
2023-02-15T20:05:29.316Z,22.10
2023-02-15T20:07:58.239Z,24.23
2023-02-15T20:10:30.185Z,26.17
2023-02-15T20:12:58.287Z,22.17
2023-02-15T20:15:28.419Z,25.07
2023-02-15T20:18:00.342Z,25.63
2023-02-15T20:20:34.340Z,21.07
2023-02-15T20:23:02.224Z,23.83
2023-02-15T20:25:31.867Z,26.10
2023-02-15T20:28:01.839Z,29.97
2023-02-15T20:30:32.016Z,34.83
2023-02-15T20:32:59.277Z,28.07
2023-02-15T20:35:31.936Z,33.47
2023-02-15T20:38:00.650Z,28.17
2023-02-15T20:40:31.113Z,31.03
2023-02-15T20:42:58.412Z,28.73
2023-02-15T20:45:28.882Z,27.03
2023-02-15T20:47:57.084Z,24.87
2023-02-15T20:50:30.257Z,33.67
2023-02-15T20:52:59.690Z,29.10
2023-02-15T20:55:32.716Z,30.40
2023-02-15T20:57:59.968Z,29.30
2023-02-15T21:00:29.784Z,27.30
2023-02-15T21:03:01.253Z,28.80
2023-02-15T21:05:31.382Z,33.07
2023-02-15T21:08:01.796Z,30.33
2023-02-15T21:10:31.948Z,31.47
2023-02-15T21:13:01.170Z,30.73
2023-02-15T21:15:39.728Z,29.27
2023-02-15T21:18:14.501Z,29.57
2023-02-15T21:20:46.603Z,25.37
2023-02-15T21:23:16.919Z,26.00
2023-02-15T21:25:44.769Z,31.17
2023-02-15T21:28:18.928Z,27.70
2023-02-15T21:30:46.448Z,28.60
2023-02-15T21:33:13.738Z,27.27
2023-02-15T21:35:41.198Z,26.60
2023-02-15T21:38:13.427Z,30.67
2023-02-15T21:40:41.176Z,30.67
2023-02-15T21:43:43.862Z,28.57
2023-02-15T21:46:38.913Z,27.87
2023-02-15T21:49:12.452Z,25.27
2023-02-15T21:51:58.638Z,24.07
2023-02-15T21:54:27.706Z,26.53
2023-02-15T21:56:55.673Z,25.47
2023-02-15T21:59:24.588Z,30.23
2023-02-15T22:01:53.198Z,32.57
2023-02-15T22:04:28.682Z,25.43
2023-02-15T22:06:59.203Z,26.90
2023-02-15T22:09:29.073Z,25.83
2023-02-15T22:11:58.414Z,27.57
2023-02-15T22:14:36.453Z,31.10
2023-02-15T22:17:10.272Z,27.93
2023-02-15T22:19:40.430Z,28.50
2023-02-15T22:22:07.311Z,30.70
2023-02-15T22:24:37.024Z,29.27
2023-02-15T22:27:05.417Z,28.10
2023-02-15T22:29:33.637Z,33.30
2023-02-15T22:32:09.918Z,30.90
2023-02-15T22:34:37.050Z,29.80
2023-02-15T22:37:04.652Z,27.27
2023-02-15T22:39:32.103Z,31.37
2023-02-15T22:42:02.559Z,28.20
2023-02-15T22:44:33.530Z,26.03
2023-02-15T22:47:05.022Z,25.27
2023-02-15T22:49:32.108Z,26.60
2023-02-15T22:51:59.280Z,26.87
2023-02-15T22:54:26.480Z,24.90
2023-02-15T22:56:56.938Z,35.53
2023-02-15T22:59:34.484Z,29.57
2023-02-15T23:02:06.534Z,26.00
2023-02-15T23:04:33.973Z,27.27
2023-02-15T23:07:01.085Z,24.87
2023-02-15T23:09:37.064Z,28.57
2023-02-15T23:12:13.764Z,25.20
2023-02-15T23:14:40.856Z,24.07
2023-02-15T23:17:12.314Z,22.60
2023-02-15T23:19:39.597Z,24.87
2023-02-15T23:22:22.071Z,24.20
2023-02-15T23:24:54.805Z,23.20
2023-02-15T23:27:40.390Z,26.97
2023-02-15T23:30:15.382Z,33.60
2023-02-15T23:32:45.694Z,29.53
2023-02-15T23:35:27.374Z,23.40
2023-02-15T23:37:54.515Z,24.57
2023-02-15T23:40:53.211Z,27.03
2023-02-15T23:43:25.455Z,23.97
2023-02-15T23:45:52.890Z,26.17
2023-02-15T23:48:30.387Z,27.00
2023-02-15T23:50:58.775Z,22.97
2023-02-15T23:53:26.130Z,24.67
2023-02-15T23:55:53.949Z,24.43
2023-02-15T23:58:30.184Z,26.43
